createdAt,value
2023-02-08T00:00:28.348Z,3.91
2023-02-08T00:01:29.843Z,3.92
2023-02-08T00:02:31.384Z,3.90
2023-02-08T00:03:32.984Z,3.89
2023-02-08T00:04:34.505Z,3.86
2023-02-08T00:05:35.979Z,3.84
2023-02-08T00:06:37.461Z,3.79
2023-02-08T00:07:39.063Z,3.77
2023-02-08T00:08:40.600Z,3.76
2023-02-08T00:09:42.171Z,3.76
2023-02-08T00:10:43.943Z,3.75
2023-02-08T00:11:45.510Z,3.76
2023-02-08T00:12:47.017Z,3.74
2023-02-08T00:13:48.504Z,3.74
2023-02-08T00:14:50.040Z,3.74
2023-02-08T00:15:52.147Z,3.73
2023-02-08T00:16:53.687Z,3.71
2023-02-08T00:17:55.206Z,3.70
2023-02-08T00:18:56.854Z,3.70
2023-02-08T00:19:58.370Z,3.65
2023-02-08T00:20:59.877Z,3.65
2023-02-08T00:22:01.346Z,3.66
2023-02-08T00:23:02.957Z,3.66
2023-02-08T00:24:04.536Z,3.66
2023-02-08T00:25:06.493Z,3.67
2023-02-08T00:26:08.053Z,3.66
2023-02-08T00:27:09.569Z,3.66
2023-02-08T00:28:12.471Z,3.64
2023-02-08T00:29:14.057Z,3.64
2023-02-08T00:30:15.630Z,3.65
2023-02-08T00:31:17.269Z,3.63
2023-02-08T00:32:18.837Z,3.63
2023-02-08T00:33:20.763Z,3.63
2023-02-08T00:34:22.280Z,3.63
2023-02-08T00:35:25.729Z,3.59
2023-02-08T00:36:27.512Z,3.59
2023-02-08T00:37:28.974Z,3.59
2023-02-08T00:38:30.499Z,3.58
2023-02-08T00:39:32.038Z,3.59
2023-02-08T00:40:34.176Z,3.59
2023-02-08T00:41:35.758Z,3.58
2023-02-08T00:42:37.241Z,3.58
2023-02-08T00:43:38.810Z,3.57
2023-02-08T00:44:40.349Z,3.57
2023-02-08T00:45:41.969Z,3.55
2023-02-08T00:46:43.569Z,3.52
2023-02-08T00:47:45.540Z,3.51
2023-02-08T00:48:47.016Z,3.50
2023-02-08T00:49:48.521Z,3.50
2023-02-08T00:50:58.952Z,3.50
2023-02-08T00:52:00.450Z,3.48
2023-02-08T00:53:02.120Z,3.47
2023-02-08T00:54:03.728Z,3.47
2023-02-08T00:55:05.342Z,3.46
2023-02-08T00:56:07.271Z,3.41
2023-02-08T00:57:08.964Z,3.40
2023-02-08T00:58:11.599Z,3.41
2023-02-08T00:59:13.173Z,3.41
2023-02-08T01:00:14.727Z,3.40
2023-02-08T01:01:16.319Z,3.41
2023-02-08T01:02:17.897Z,3.41
2023-02-08T01:03:20.353Z,3.42
2023-02-08T01:04:22.101Z,3.41
2023-02-08T01:05:23.553Z,3.42
2023-02-08T01:06:25.066Z,3.41
2023-02-08T01:07:26.534Z,3.42
2023-02-08T01:08:28.111Z,3.40
2023-02-08T01:09:30.140Z,3.40
2023-02-08T01:10:33.698Z,3.39
2023-02-08T01:11:35.278Z,3.39
2023-02-08T01:12:36.835Z,3.38
2023-02-08T01:13:38.433Z,3.37
2023-02-08T01:14:40.249Z,3.36
2023-02-08T01:15:41.762Z,3.33
2023-02-08T01:16:43.229Z,3.33
2023-02-08T01:17:44.717Z,3.33
2023-02-08T01:18:46.775Z,3.33
2023-02-08T01:19:48.251Z,3.32
2023-02-08T01:20:49.725Z,3.32
2023-02-08T01:21:51.166Z,3.31
2023-02-08T01:22:52.656Z,3.29
2023-02-08T01:23:54.223Z,3.29
2023-02-08T01:24:55.716Z,3.29
2023-02-08T01:25:57.277Z,3.29
2023-02-08T01:26:58.854Z,3.29
2023-02-08T01:28:00.446Z,3.30
2023-02-08T01:29:02.015Z,3.26
2023-02-08T01:30:04.074Z,3.27
2023-02-08T01:31:24.413Z,3.23
2023-02-08T01:32:26.682Z,3.23
2023-02-08T01:33:28.650Z,3.23
2023-02-08T01:34:30.121Z,3.22
2023-02-08T01:35:31.629Z,3.22
2023-02-08T01:36:33.406Z,3.18
2023-02-08T01:37:35.059Z,3.17
2023-02-08T01:38:37.695Z,3.16
2023-02-08T01:39:39.214Z,3.16
2023-02-08T01:40:40.995Z,3.16
2023-02-08T01:41:44.494Z,3.10
2023-02-08T01:42:46.049Z,3.10
2023-02-08T01:44:06.252Z,3.12
2023-02-08T01:45:17.611Z,3.11
2023-02-08T01:46:19.139Z,3.09
2023-02-08T01:47:20.619Z,3.08
2023-02-08T01:48:32.137Z,3.07
2023-02-08T01:49:34.760Z,3.07
2023-02-08T01:50:40.277Z,3.08
2023-02-08T01:51:43.332Z,3.09
2023-02-08T01:52:44.856Z,3.09
2023-02-08T01:53:46.362Z,3.10
2023-02-08T01:54:49.448Z,3.10
2023-02-08T01:55:54.604Z,2.99
2023-02-08T01:56:56.108Z,3.10
2023-02-08T01:57:58.005Z,3.10
2023-02-08T01:59:01.083Z,3.09
2023-02-08T02:00:12.873Z,3.09
2023-02-08T02:01:17.473Z,3.09
2023-02-08T02:02:20.048Z,3.09
2023-02-08T02:03:22.250Z,3.08
2023-02-08T02:04:23.856Z,3.08
2023-02-08T02:05:33.976Z,3.06
2023-02-08T02:06:36.209Z,3.04
2023-02-08T02:07:37.818Z,3.03
2023-02-08T02:08:40.247Z,3.01
2023-02-08T02:09:50.945Z,3.00
2023-02-08T02:10:52.422Z,2.99
2023-02-08T02:11:54.079Z,2.99
2023-02-08T02:12:55.899Z,2.97
2023-02-08T02:13:57.703Z,2.84
2023-02-08T02:14:59.612Z,2.96
2023-02-08T02:16:01.092Z,2.96
2023-02-08T02:17:02.656Z,2.95
2023-02-08T02:18:05.034Z,2.95
2023-02-08T02:19:07.870Z,2.95
2023-02-08T02:20:09.766Z,2.94
2023-02-08T02:21:17.305Z,2.93
2023-02-08T02:22:32.686Z,2.93
2023-02-08T02:23:39.985Z,2.93
2023-02-08T02:25:07.743Z,2.92
2023-02-08T02:26:09.256Z,2.90
2023-02-08T02:27:10.769Z,2.88
2023-02-08T02:28:27.977Z,2.85
2023-02-08T02:29:38.479Z,2.82
2023-02-08T02:30:58.583Z,2.80
2023-02-08T02:32:07.573Z,2.80
2023-02-08T02:33:15.258Z,2.78
2023-02-08T02:34:26.226Z,2.78
2023-02-08T02:35:36.536Z,2.76
2023-02-08T02:36:48.423Z,2.74
2023-02-08T02:38:00.777Z,2.73
2023-02-08T02:39:08.206Z,2.69
2023-02-08T02:40:20.301Z,2.68
2023-02-08T02:41:50.921Z,2.68
2023-02-08T02:43:15.420Z,2.67
2023-02-08T02:44:36.697Z,2.61
2023-02-08T02:45:38.206Z,2.60
2023-02-08T02:46:43.434Z,2.59
2023-02-08T02:47:57.136Z,2.57
2023-02-08T02:49:17.064Z,2.58
2023-02-08T02:50:18.655Z,2.58
2023-02-08T02:51:32.818Z,2.58
2023-02-08T02:52:39.038Z,2.57
2023-02-08T02:53:41.973Z,2.43
2023-02-08T02:54:48.092Z,2.54
2023-02-08T02:55:55.163Z,2.55
2023-02-08T02:56:59.028Z,2.52
2023-02-08T02:58:00.691Z,2.53
2023-02-08T02:59:04.117Z,2.48
2023-02-08T03:00:09.284Z,2.49
2023-02-08T03:01:10.883Z,2.49
2023-02-08T03:02:12.535Z,2.36
2023-02-08T03:03:18.890Z,2.47
2023-02-08T03:04:32.337Z,2.47
2023-02-08T03:05:33.882Z,2.45
2023-02-08T03:06:49.207Z,2.44
2023-02-08T03:07:55.161Z,2.44
2023-02-08T03:09:05.502Z,2.45
2023-02-08T03:10:09.850Z,2.44
2023-02-08T03:11:14.519Z,2.45
2023-02-08T03:12:31.036Z,2.45
2023-02-08T03:13:32.882Z,2.45
2023-02-08T03:14:41.000Z,2.45
2023-02-08T03:15:42.488Z,2.44
2023-02-08T03:17:02.399Z,2.38
2023-02-08T03:18:03.935Z,2.34
2023-02-08T03:19:17.796Z,2.36
2023-02-08T03:20:22.652Z,2.32
2023-02-08T03:21:29.750Z,2.32
2023-02-08T03:22:34.242Z,2.31
2023-02-08T03:23:46.469Z,2.33
2023-02-08T03:25:17.092Z,2.34
2023-02-08T03:26:27.521Z,2.33
2023-02-08T03:27:36.494Z,2.34
2023-02-08T03:28:41.321Z,2.34
2023-02-08T03:29:44.945Z,2.32
2023-02-08T03:30:59.245Z,2.33
2023-02-08T03:32:01.301Z,2.34
2023-02-08T03:33:03.596Z,2.33
2023-02-08T03:34:16.284Z,2.33
2023-02-08T03:35:20.341Z,2.34
2023-02-08T03:36:25.000Z,2.31
2023-02-08T03:37:27.470Z,2.32
2023-02-08T03:38:29.908Z,2.31
2023-02-08T03:39:31.410Z,2.32
2023-02-08T03:40:35.340Z,2.31
2023-02-08T03:41:37.914Z,2.32
2023-02-08T03:42:39.425Z,2.33
2023-02-08T03:43:45.085Z,2.31
2023-02-08T03:44:47.509Z,2.32
2023-02-08T03:45:53.141Z,2.30
2023-02-08T03:47:12.345Z,2.29
2023-02-08T03:48:14.123Z,2.30
2023-02-08T03:49:16.880Z,2.30
2023-02-08T03:50:18.460Z,2.31
2023-02-08T03:51:19.950Z,2.31
2023-02-08T03:52:21.579Z,2.32
2023-02-08T03:53:23.288Z,2.30
2023-02-08T03:54:25.568Z,2.30
2023-02-08T03:55:30.541Z,2.31
2023-02-08T03:56:35.798Z,2.31
2023-02-08T03:57:43.138Z,2.30
2023-02-08T03:58:52.505Z,2.31
2023-02-08T04:00:01.053Z,2.29
2023-02-08T04:01:28.734Z,2.30
2023-02-08T04:02:31.189Z,2.30
2023-02-08T04:03:32.766Z,2.30
2023-02-08T04:04:35.010Z,2.30
2023-02-08T04:05:36.618Z,2.30
2023-02-08T04:06:38.094Z,2.31
2023-02-08T04:07:39.610Z,2.32
2023-02-08T04:08:41.187Z,2.33
2023-02-08T04:09:42.654Z,2.33
2023-02-08T04:10:44.210Z,2.30
2023-02-08T04:11:45.677Z,2.27
2023-02-08T04:12:47.867Z,2.29
2023-02-08T04:13:49.388Z,2.30
2023-02-08T04:14:50.890Z,2.29
2023-02-08T04:15:52.468Z,2.30
2023-02-08T04:16:54.058Z,2.29
2023-02-08T04:17:55.534Z,2.28
2023-02-08T04:18:57.068Z,2.29
2023-02-08T04:19:58.598Z,2.29
2023-02-08T04:21:00.128Z,2.28
2023-02-08T04:22:01.612Z,2.29
2023-02-08T04:23:03.136Z,2.29
2023-02-08T04:24:04.667Z,2.30
2023-02-08T04:25:06.228Z,2.31
2023-02-08T04:26:08.842Z,2.32
2023-02-08T04:27:10.388Z,2.33
2023-02-08T04:28:11.889Z,2.35
2023-02-08T04:29:13.454Z,2.35
2023-02-08T04:30:14.912Z,2.37
2023-02-08T04:31:16.450Z,2.37
2023-02-08T04:32:18.041Z,2.38
2023-02-08T04:33:19.516Z,2.39
2023-02-08T04:34:20.969Z,2.41
2023-02-08T04:35:22.471Z,2.40
2023-02-08T04:36:24.027Z,2.40
2023-02-08T04:37:25.503Z,2.41
2023-02-08T04:38:26.976Z,2.40
2023-02-08T04:39:28.445Z,2.30
2023-02-08T04:40:31.115Z,2.42
2023-02-08T04:41:32.706Z,2.42
2023-02-08T04:42:34.614Z,2.42
2023-02-08T04:43:36.193Z,2.30
2023-02-08T04:44:37.733Z,2.43
2023-02-08T04:45:39.275Z,2.44
2023-02-08T04:46:40.867Z,2.45
2023-02-08T04:47:42.359Z,2.45
2023-02-08T04:48:43.966Z,2.45
2023-02-08T04:49:45.462Z,2.47
2023-02-08T04:50:46.923Z,2.45
2023-02-08T04:51:48.481Z,2.45
2023-02-08T04:52:49.984Z,2.46
2023-02-08T04:53:51.505Z,2.45
2023-02-08T04:54:53.029Z,2.45
2023-02-08T04:55:54.544Z,2.45
2023-02-08T04:56:56.192Z,2.46
2023-02-08T04:57:57.886Z,2.45
2023-02-08T04:58:59.394Z,2.44
2023-02-08T05:00:00.909Z,2.43
2023-02-08T05:01:05.812Z,2.43
2023-02-08T05:02:07.317Z,2.44
2023-02-08T05:03:08.900Z,2.45
2023-02-08T05:04:10.446Z,2.46
2023-02-08T05:05:11.991Z,2.46
2023-02-08T05:06:13.576Z,2.46
2023-02-08T05:07:15.120Z,2.46
2023-02-08T05:08:16.569Z,2.45
2023-02-08T05:09:18.146Z,2.44
2023-02-08T05:10:19.659Z,2.44
2023-02-08T05:11:21.674Z,2.43
2023-02-08T05:12:23.184Z,2.45
2023-02-08T05:13:24.694Z,2.44
2023-02-08T05:14:26.311Z,2.44
2023-02-08T05:15:27.839Z,2.45
2023-02-08T05:16:29.300Z,2.44
2023-02-08T05:17:30.781Z,2.45
2023-02-08T05:18:32.446Z,2.43
2023-02-08T05:19:34.053Z,2.43
2023-02-08T05:20:35.535Z,2.45
2023-02-08T05:21:37.098Z,2.45
2023-02-08T05:22:38.604Z,2.45
2023-02-08T05:23:40.063Z,2.45
2023-02-08T05:24:41.561Z,2.42
2023-02-08T05:25:43.071Z,2.42
2023-02-08T05:26:44.602Z,2.44
2023-02-08T05:27:46.174Z,2.44
2023-02-08T05:28:47.673Z,2.44
2023-02-08T05:29:49.167Z,2.44
2023-02-08T05:30:50.698Z,2.45
2023-02-08T05:31:52.233Z,2.43
2023-02-08T05:32:53.740Z,2.43
2023-02-08T05:33:55.245Z,2.43
2023-02-08T05:34:56.735Z,2.43
2023-02-08T05:35:58.200Z,2.43
2023-02-08T05:36:59.792Z,2.43
2023-02-08T05:38:01.297Z,2.41
2023-02-08T05:39:02.768Z,2.41
2023-02-08T05:40:04.393Z,2.40
2023-02-08T05:41:05.850Z,2.41
2023-02-08T05:42:07.351Z,2.39
2023-02-08T05:43:08.822Z,2.27
2023-02-08T05:44:10.286Z,2.38
2023-02-08T05:45:11.805Z,2.38
2023-02-08T05:46:13.236Z,2.38
2023-02-08T05:47:15.032Z,2.37
2023-02-08T05:48:16.567Z,2.36
2023-02-08T05:49:18.048Z,2.36
2023-02-08T05:50:19.680Z,2.35
2023-02-08T05:51:25.282Z,2.36
2023-02-08T05:52:26.736Z,2.35
2023-02-08T05:53:29.611Z,2.34
2023-02-08T05:54:31.132Z,2.34
2023-02-08T05:55:32.667Z,2.33
2023-02-08T05:56:34.705Z,2.34
2023-02-08T05:57:36.999Z,2.33
2023-02-08T05:58:38.520Z,2.30
2023-02-08T05:59:40.053Z,2.30
2023-02-08T06:00:41.697Z,2.31
2023-02-08T06:01:43.353Z,2.30
2023-02-08T06:02:45.104Z,2.28
2023-02-08T06:03:46.600Z,2.27
2023-02-08T06:04:48.213Z,2.27
2023-02-08T06:05:49.660Z,2.28
2023-02-08T06:06:51.129Z,2.26
2023-02-08T06:07:52.646Z,2.25
2023-02-08T06:08:54.205Z,2.27
2023-02-08T06:09:55.703Z,2.24
2023-02-08T06:10:57.211Z,2.22
2023-02-08T06:11:58.681Z,2.21
2023-02-08T06:13:00.623Z,2.22
2023-02-08T06:14:03.017Z,2.23
2023-02-08T06:15:04.601Z,2.23
2023-02-08T06:16:06.551Z,2.23
2023-02-08T06:17:08.288Z,2.24
2023-02-08T06:18:09.742Z,2.25
2023-02-08T06:19:11.193Z,2.22
2023-02-08T06:20:12.776Z,2.22
2023-02-08T06:21:14.228Z,2.21
2023-02-08T06:22:15.783Z,2.22
2023-02-08T06:23:17.275Z,2.23
2023-02-08T06:24:18.733Z,2.23
2023-02-08T06:25:20.240Z,2.23
2023-02-08T06:26:21.716Z,2.21
2023-02-08T06:27:23.186Z,2.21
2023-02-08T06:28:24.683Z,2.21
2023-02-08T06:29:26.197Z,2.21
2023-02-08T06:30:27.821Z,2.18
2023-02-08T06:31:29.288Z,2.18
2023-02-08T06:32:31.450Z,2.18
2023-02-08T06:33:32.897Z,2.18
2023-02-08T06:34:34.382Z,2.16
2023-02-08T06:35:35.892Z,2.13
2023-02-08T06:36:37.635Z,2.13
2023-02-08T06:37:39.150Z,2.12
2023-02-08T06:38:40.645Z,2.12
2023-02-08T06:39:42.107Z,2.10
2023-02-08T06:40:43.631Z,2.10
2023-02-08T06:41:45.110Z,2.11
2023-02-08T06:42:47.140Z,2.11
2023-02-08T06:43:48.625Z,2.11
2023-02-08T06:44:55.086Z,2.11
2023-02-08T06:45:56.968Z,2.11
2023-02-08T06:46:58.494Z,2.11
2023-02-08T06:48:00.000Z,2.12
2023-02-08T06:49:01.543Z,2.12
2023-02-08T06:50:02.985Z,2.12
2023-02-08T06:51:04.516Z,2.11
2023-02-08T06:52:05.980Z,2.12
2023-02-08T06:53:07.469Z,2.11
2023-02-08T06:54:08.962Z,2.10
2023-02-08T06:55:10.425Z,2.09
2023-02-08T06:56:11.937Z,2.09
2023-02-08T06:57:13.452Z,2.08
2023-02-08T06:58:14.923Z,2.09
2023-02-08T06:59:16.448Z,2.08
2023-02-08T07:00:17.961Z,2.07
2023-02-08T07:01:19.555Z,1.95
2023-02-08T07:02:21.189Z,2.05
2023-02-08T07:03:22.690Z,2.07
2023-02-08T07:04:24.181Z,2.07
2023-02-08T07:05:25.619Z,2.09
2023-02-08T07:06:27.128Z,2.09
2023-02-08T07:07:28.617Z,2.09
2023-02-08T07:08:30.215Z,2.06
2023-02-08T07:09:33.117Z,2.08
2023-02-08T07:10:34.628Z,2.10
2023-02-08T07:11:36.153Z,2.09
2023-02-08T07:12:37.658Z,2.11
2023-02-08T07:13:39.227Z,2.10
2023-02-08T07:14:41.035Z,2.09
2023-02-08T07:15:42.577Z,2.10
2023-02-08T07:16:44.071Z,2.12
2023-02-08T07:17:45.564Z,2.14
2023-02-08T07:18:47.048Z,2.15
2023-02-08T07:19:48.565Z,2.18
2023-02-08T07:20:50.061Z,2.19
2023-02-08T07:21:51.524Z,2.21
2023-02-08T07:22:53.044Z,2.21
2023-02-08T07:23:54.524Z,2.22
2023-02-08T07:24:55.989Z,2.21
2023-02-08T07:26:12.119Z,2.22
2023-02-08T07:27:13.683Z,2.21
2023-02-08T07:28:15.263Z,2.22
2023-02-08T07:29:16.772Z,2.23
2023-02-08T07:30:18.274Z,2.24
2023-02-08T07:31:19.810Z,2.24
2023-02-08T07:32:21.298Z,2.25
2023-02-08T07:33:22.853Z,2.27
2023-02-08T07:34:24.313Z,2.28
2023-02-08T07:35:25.784Z,2.28
2023-02-08T07:36:27.310Z,2.29
2023-02-08T07:37:28.755Z,2.30
2023-02-08T07:38:30.308Z,2.30
2023-02-08T07:39:31.885Z,2.31
2023-02-08T07:40:33.410Z,2.34
2023-02-08T07:41:34.893Z,2.37
2023-02-08T07:42:36.394Z,2.41
2023-02-08T07:43:51.452Z,2.51
2023-02-08T07:44:52.913Z,2.61
2023-02-08T07:45:55.015Z,2.71
2023-02-08T07:46:56.523Z,2.80
2023-02-08T07:47:58.002Z,2.89
2023-02-08T07:48:59.516Z,2.98
2023-02-08T07:50:01.092Z,3.08
2023-02-08T07:51:02.767Z,3.20
2023-02-08T07:52:04.309Z,3.37
2023-02-08T07:53:05.819Z,3.55
2023-02-08T07:54:07.424Z,3.74
2023-02-08T07:55:09.882Z,3.93
2023-02-08T07:56:11.557Z,4.08
2023-02-08T07:57:16.329Z,4.32
2023-02-08T07:58:17.848Z,4.55
2023-02-08T07:59:19.290Z,4.74
2023-02-08T08:00:20.946Z,4.94
2023-02-08T08:01:23.162Z,5.16
2023-02-08T08:02:24.725Z,5.36
2023-02-08T08:03:26.203Z,5.51
2023-02-08T08:04:27.651Z,5.67
2023-02-08T08:05:29.176Z,5.81
2023-02-08T08:06:30.695Z,5.97
2023-02-08T08:07:32.172Z,6.10
2023-02-08T08:08:33.669Z,6.26
2023-02-08T08:09:35.144Z,6.45
2023-02-08T08:10:36.647Z,6.60
2023-02-08T08:11:38.187Z,6.76
2023-02-08T08:12:39.681Z,6.90
2023-02-08T08:13:41.193Z,7.04
2023-02-08T08:14:42.679Z,7.23
2023-02-08T08:15:44.210Z,7.36
2023-02-08T08:16:45.666Z,7.55
2023-02-08T08:17:47.209Z,7.65
2023-02-08T08:18:48.797Z,7.80
2023-02-08T08:19:50.324Z,7.90
2023-02-08T08:20:51.782Z,8.00
2023-02-08T08:21:53.293Z,8.14
2023-02-08T08:22:54.784Z,8.24
2023-02-08T08:23:56.296Z,8.39
2023-02-08T08:24:58.744Z,8.52
2023-02-08T08:26:00.438Z,8.60
2023-02-08T08:27:04.632Z,8.74
2023-02-08T08:28:06.292Z,8.89
2023-02-08T08:29:07.816Z,9.01
2023-02-08T08:30:10.307Z,9.11
2023-02-08T08:31:16.747Z,9.27
2023-02-08T08:32:18.269Z,9.43
2023-02-08T08:33:19.858Z,9.47
2023-02-08T08:34:22.471Z,9.70
2023-02-08T08:35:23.923Z,9.84
2023-02-08T08:36:25.496Z,9.93
2023-02-08T08:37:26.967Z,10.02
2023-02-08T08:38:28.453Z,10.17
2023-02-08T08:39:30.074Z,10.23
2023-02-08T08:40:31.669Z,10.35
2023-02-08T08:41:33.245Z,10.49
2023-02-08T08:42:35.040Z,10.54
2023-02-08T08:43:36.550Z,10.63
2023-02-08T08:44:38.092Z,10.78
2023-02-08T08:45:39.528Z,10.87
2023-02-08T08:46:41.101Z,10.94
2023-02-08T08:47:42.667Z,11.04
2023-02-08T08:48:44.261Z,11.18
2023-02-08T08:49:45.757Z,11.30
2023-02-08T08:50:53.320Z,11.44
2023-02-08T08:51:54.927Z,11.60
2023-02-08T08:52:56.525Z,11.65
2023-02-08T08:53:57.982Z,11.71
2023-02-08T08:54:59.451Z,11.83
2023-02-08T08:56:01.020Z,11.99
2023-02-08T08:57:02.544Z,12.05
2023-02-08T08:58:04.038Z,12.14
2023-02-08T08:59:05.630Z,12.22
2023-02-08T09:00:07.331Z,12.25
2023-02-08T09:01:08.811Z,12.32
2023-02-08T09:02:13.872Z,12.35
2023-02-08T09:03:15.473Z,12.41
2023-02-08T09:04:17.081Z,12.52
2023-02-08T09:05:18.625Z,12.58
2023-02-08T09:06:20.078Z,12.55
2023-02-08T09:07:21.588Z,12.64
2023-02-08T09:08:23.169Z,12.68
2023-02-08T09:09:24.690Z,12.73
2023-02-08T09:10:26.162Z,12.83
2023-02-08T09:11:27.754Z,12.86
2023-02-08T09:12:29.220Z,12.88
2023-02-08T09:13:30.718Z,12.99
2023-02-08T09:14:32.205Z,13.08
2023-02-08T09:15:33.656Z,13.17
2023-02-08T09:16:35.122Z,13.28
2023-02-08T09:17:36.632Z,13.44
2023-02-08T09:18:38.194Z,13.51
2023-02-08T09:19:39.689Z,13.55
2023-02-08T09:20:41.603Z,13.67
2023-02-08T09:21:43.401Z,13.78
2023-02-08T09:22:44.883Z,13.91
2023-02-08T09:23:49.266Z,13.99
2023-02-08T09:24:52.370Z,14.03
2023-02-08T09:25:53.834Z,14.08
2023-02-08T09:26:55.329Z,14.17
2023-02-08T09:27:56.927Z,14.29
2023-02-08T09:28:58.510Z,14.34
2023-02-08T09:30:00.160Z,14.40
2023-02-08T09:31:20.287Z,14.49
2023-02-08T09:32:23.033Z,14.55
2023-02-08T09:33:24.575Z,14.59
2023-02-08T09:34:26.126Z,14.63
2023-02-08T09:35:27.631Z,14.68
2023-02-08T09:36:29.785Z,14.74
2023-02-08T09:37:31.286Z,14.74
2023-02-08T09:38:34.625Z,14.81
2023-02-08T09:39:36.371Z,14.91
2023-02-08T09:40:44.038Z,15.04
2023-02-08T09:41:54.440Z,15.10
2023-02-08T09:43:13.058Z,15.23
2023-02-08T09:44:17.389Z,15.38
2023-02-08T09:45:31.128Z,15.43
2023-02-08T09:46:32.740Z,15.54
2023-02-08T09:47:36.168Z,15.62
2023-02-08T09:48:38.281Z,15.64
2023-02-08T09:49:41.043Z,15.70
2023-02-08T09:50:50.160Z,15.70
2023-02-08T09:51:53.614Z,15.73
2023-02-08T09:52:58.230Z,15.80
2023-02-08T09:54:11.995Z,15.95
2023-02-08T09:55:17.565Z,16.07
2023-02-08T09:56:19.683Z,16.20
2023-02-08T09:57:22.380Z,16.38
2023-02-08T09:58:27.630Z,16.44
2023-02-08T09:59:29.842Z,16.48
2023-02-08T10:00:34.497Z,16.47
2023-02-08T10:01:35.986Z,16.47
2023-02-08T10:02:37.525Z,16.52
2023-02-08T10:03:39.812Z,16.60
2023-02-08T10:04:45.631Z,16.66
2023-02-08T10:05:48.106Z,16.72
2023-02-08T10:06:50.250Z,16.72
2023-02-08T10:07:51.802Z,16.74
2023-02-08T10:08:53.350Z,16.72
2023-02-08T10:09:55.052Z,16.76
2023-02-08T10:11:03.971Z,16.72
2023-02-08T10:12:11.389Z,16.87
2023-02-08T10:13:14.048Z,16.93
2023-02-08T10:14:27.008Z,16.94
2023-02-08T10:15:31.580Z,17.01
2023-02-08T10:16:39.763Z,17.17
2023-02-08T10:17:44.681Z,17.24
2023-02-08T10:18:46.148Z,17.36
2023-02-08T10:19:50.473Z,17.48
2023-02-08T10:21:10.773Z,17.52
2023-02-08T10:22:31.032Z,17.43
2023-02-08T10:23:41.938Z,17.48
2023-02-08T10:24:47.712Z,17.52
2023-02-08T10:26:07.547Z,17.56
2023-02-08T10:27:15.067Z,17.77
2023-02-08T10:28:22.439Z,17.79
2023-02-08T10:29:31.504Z,17.70
2023-02-08T10:30:35.825Z,17.75
2023-02-08T10:31:46.135Z,17.84
2023-02-08T10:32:56.769Z,17.88
2023-02-08T10:34:01.764Z,17.83
2023-02-08T10:35:05.349Z,17.75
2023-02-08T10:36:17.131Z,17.78
2023-02-08T10:37:19.571Z,17.89
2023-02-08T10:38:21.118Z,18.04
2023-02-08T10:39:34.772Z,18.09
2023-02-08T10:40:37.796Z,18.16
2023-02-08T10:41:39.469Z,18.27
2023-02-08T10:42:41.224Z,18.43
2023-02-08T10:43:44.235Z,18.56
2023-02-08T10:44:54.515Z,18.59
2023-02-08T10:46:14.815Z,18.63
2023-02-08T10:47:28.164Z,18.66
2023-02-08T10:48:32.506Z,18.65
2023-02-08T10:49:35.075Z,18.61
2023-02-08T10:50:36.767Z,18.51
2023-02-08T10:51:38.467Z,18.48
2023-02-08T10:52:40.044Z,18.58
2023-02-08T10:53:41.580Z,18.58
2023-02-08T10:54:43.065Z,18.66
2023-02-08T10:55:45.791Z,18.64
2023-02-08T10:56:57.568Z,18.69
2023-02-08T10:57:59.894Z,18.71
2023-02-08T10:59:01.946Z,18.77
2023-02-08T11:00:07.257Z,18.79
2023-02-08T11:01:09.005Z,18.83
2023-02-08T11:02:18.471Z,18.95
2023-02-08T11:03:23.492Z,19.03
2023-02-08T11:04:25.107Z,19.17
2023-02-08T11:05:26.551Z,19.27
2023-02-08T11:06:28.169Z,19.29
2023-02-08T11:07:29.778Z,19.46
2023-02-08T11:08:31.325Z,19.53
2023-02-08T11:09:32.861Z,19.55
2023-02-08T11:10:34.457Z,19.44
2023-02-08T11:11:36.589Z,19.42
2023-02-08T11:12:38.078Z,19.38
2023-02-08T11:13:40.512Z,19.36
2023-02-08T11:14:47.196Z,19.35
2023-02-08T11:15:49.922Z,19.28
2023-02-08T11:16:55.146Z,19.29
2023-02-08T11:17:57.983Z,19.11
2023-02-08T11:19:01.356Z,19.15
2023-02-08T11:20:02.882Z,19.21
2023-02-08T11:21:23.900Z,19.20
2023-02-08T11:22:26.352Z,19.17
2023-02-08T11:23:31.460Z,19.28
2023-02-08T11:24:40.184Z,19.41
2023-02-08T11:25:41.982Z,19.47
2023-02-08T11:26:43.643Z,19.45
2023-02-08T11:27:48.062Z,19.29
2023-02-08T11:29:08.229Z,19.09
2023-02-08T11:30:18.037Z,18.86
2023-02-08T11:31:20.013Z,18.61
2023-02-08T11:32:21.859Z,18.60
2023-02-08T11:33:23.442Z,18.50
2023-02-08T11:34:29.282Z,18.37
2023-02-08T11:35:33.836Z,18.12
2023-02-08T11:36:35.615Z,18.03
2023-02-08T11:37:37.076Z,18.02
2023-02-08T11:38:40.729Z,18.01
2023-02-08T11:39:58.028Z,17.86
2023-02-08T11:41:00.517Z,17.64
2023-02-08T11:42:01.982Z,17.48
2023-02-08T11:43:03.642Z,17.42
2023-02-08T11:44:05.976Z,17.38
2023-02-08T11:45:07.739Z,17.27
2023-02-08T11:46:09.257Z,17.28
2023-02-08T11:47:10.801Z,17.20
2023-02-08T11:48:20.690Z,17.15
2023-02-08T11:49:23.875Z,17.10
2023-02-08T11:50:35.340Z,17.09
2023-02-08T11:51:36.910Z,16.99
2023-02-08T11:52:39.399Z,16.87
2023-02-08T11:53:41.133Z,16.67
2023-02-08T11:54:42.618Z,16.61
2023-02-08T11:55:44.429Z,16.54
2023-02-08T11:56:46.043Z,16.51
2023-02-08T11:57:54.915Z,16.54
2023-02-08T11:59:06.588Z,16.67
2023-02-08T12:00:26.945Z,16.66
2023-02-08T12:01:29.890Z,16.49
2023-02-08T12:02:38.804Z,16.54
2023-02-08T12:03:40.389Z,16.52
2023-02-08T12:04:42.039Z,16.57
2023-02-08T12:06:15.613Z,16.60
2023-02-08T12:07:26.154Z,16.58
2023-02-08T12:08:43.146Z,16.55
2023-02-08T12:09:44.690Z,16.60
2023-02-08T12:10:46.110Z,16.50
2023-02-08T12:11:47.541Z,16.53
2023-02-08T12:13:07.926Z,16.48
2023-02-08T12:14:28.315Z,16.26
2023-02-08T12:15:40.197Z,16.10
2023-02-08T12:16:50.841Z,16.03
2023-02-08T12:17:55.136Z,16.03
2023-02-08T12:19:01.248Z,16.09
2023-02-08T12:20:12.923Z,16.10
2023-02-08T12:21:27.329Z,16.02
2023-02-08T12:22:29.376Z,16.06
2023-02-08T12:23:30.833Z,16.00
2023-02-08T12:24:41.404Z,16.01
2023-02-08T12:25:45.810Z,15.99
2023-02-08T12:26:52.806Z,16.01
2023-02-08T12:28:00.154Z,16.02
2023-02-08T12:29:01.716Z,16.05
2023-02-08T12:30:29.683Z,16.05
2023-02-08T12:31:44.360Z,16.08
2023-02-08T12:32:48.777Z,16.02
2023-02-08T12:33:53.513Z,15.95
2023-02-08T12:35:15.631Z,15.94
2023-02-08T12:36:20.940Z,15.91
2023-02-08T12:37:46.909Z,15.89
2023-02-08T12:39:24.691Z,15.95
2023-02-08T12:40:52.748Z,15.98
2023-02-08T12:41:54.336Z,15.92
2023-02-08T12:43:04.939Z,15.94
2023-02-08T12:44:08.370Z,15.91
2023-02-08T12:45:28.094Z,15.88
2023-02-08T12:46:41.570Z,15.87
2023-02-08T12:48:03.291Z,15.87
2023-02-08T12:49:28.921Z,15.82
2023-02-08T12:50:31.407Z,15.83
2023-02-08T12:51:36.130Z,15.72
2023-02-08T12:52:41.645Z,15.71
2023-02-08T12:53:47.095Z,15.72
2023-02-08T12:54:51.146Z,15.70
2023-02-08T12:55:52.604Z,15.66
2023-02-08T12:57:02.031Z,15.58
2023-02-08T12:58:16.345Z,15.52
2023-02-08T12:59:28.284Z,15.54
2023-02-08T13:00:30.907Z,15.51
2023-02-08T13:01:34.237Z,15.38
2023-02-08T13:02:44.432Z,15.37
2023-02-08T13:03:51.059Z,15.32
2023-02-08T13:04:54.035Z,15.26
2023-02-08T13:06:02.085Z,15.25
2023-02-08T13:07:30.293Z,15.27
2023-02-08T13:08:34.850Z,15.24
2023-02-08T13:09:39.821Z,15.30
2023-02-08T13:10:41.406Z,15.36
2023-02-08T13:11:45.453Z,15.36
2023-02-08T13:12:49.288Z,15.38
2023-02-08T13:13:56.840Z,15.35
2023-02-08T13:15:04.988Z,15.30
2023-02-08T13:16:12.907Z,15.31
2023-02-08T13:17:46.881Z,15.31
2023-02-08T13:18:53.590Z,15.38
2023-02-08T13:20:02.907Z,15.39
2023-02-08T13:21:07.348Z,15.43
2023-02-08T13:22:10.044Z,15.46
2023-02-08T13:23:22.929Z,15.49
2023-02-08T13:24:27.539Z,15.48
2023-02-08T13:25:35.834Z,15.50
2023-02-08T13:26:37.605Z,15.44
2023-02-08T13:27:39.169Z,15.43
2023-02-08T13:28:40.776Z,15.41
2023-02-08T13:29:42.947Z,15.33
2023-02-08T13:30:44.953Z,15.34
2023-02-08T13:31:54.131Z,15.31
2023-02-08T13:32:56.360Z,15.27
2023-02-08T13:34:01.650Z,15.25
2023-02-08T13:35:11.328Z,15.20
2023-02-08T13:36:19.825Z,15.21
2023-02-08T13:37:39.046Z,15.20
2023-02-08T13:38:44.607Z,15.18
2023-02-08T13:39:46.558Z,15.18
2023-02-08T13:40:48.021Z,15.17
2023-02-08T13:41:52.277Z,15.13
2023-02-08T13:43:34.806Z,15.05
2023-02-08T13:44:37.680Z,15.02
2023-02-08T13:45:40.296Z,15.01
2023-02-08T13:46:46.267Z,14.96
2023-02-08T13:47:48.767Z,14.96
2023-02-08T13:48:53.778Z,14.99
2023-02-08T13:50:07.766Z,15.00
2023-02-08T13:51:29.177Z,15.02
2023-02-08T13:52:46.367Z,15.04
2023-02-08T13:53:54.767Z,14.90
2023-02-08T13:55:16.210Z,14.88
2023-02-08T13:56:20.255Z,14.84
2023-02-08T13:57:40.355Z,14.78
2023-02-08T13:58:47.833Z,14.72
2023-02-08T14:00:02.716Z,14.63
2023-02-08T14:01:15.070Z,14.68
2023-02-08T14:02:18.825Z,14.70
2023-02-08T14:03:20.338Z,14.71
2023-02-08T14:04:29.739Z,14.67
2023-02-08T14:05:43.226Z,14.67